Time;durP1;ratioP1;P1;durP2;ratioP2;P2;SDS_P1;SDS_P2;PMS_P1;PMS_P2;Temp;Humidity;BMP_temperature;BMP_pressure;BME280_temperature;BME280_humidity;BME280_pressure;Samples;Min_cycle;Max_cycle;Signal;HPM_P1;HPM_P2
2022/05/06 00:00:18;;;;;;;5.17;3.97;;;11.30;99.00;;;;;;4928179;29;20220;-69
2022/05/06 00:02:44;;;;;;;13.80;5.80;;;11.30;99.40;;;;;;4929777;29;20205;-69
2022/05/06 00:05:12;;;;;;;5.73;5.23;;;11.30;99.50;;;;;;4927850;29;20225;-69
2022/05/06 00:07:38;;;;;;;8.03;5.10;;;11.20;99.80;;;;;;4929659;29;20236;-69
2022/05/06 00:10:06;;;;;;;6.23;5.00;;;11.20;99.90;;;;;;4928040;29;20687;-69
2022/05/06 00:12:32;;;;;;;6.03;4.40;;;11.10;99.90;;;;;;4929726;29;20668;-69
2022/05/06 00:14:58;;;;;;;6.23;5.63;;;11.10;99.90;;;;;;4927937;29;20221;-69
2022/05/06 00:17:24;;;;;;;4.93;4.43;;;11.10;99.90;;;;;;4929477;29;20201;-68
2022/05/06 00:19:49;;;;;;;5.53;4.83;;;11.00;99.90;;;;;;4927890;29;20253;-69
2022/05/06 00:22:15;;;;;;;8.23;5.00;;;11.00;99.90;;;;;;4930050;29;20647;-69
2022/05/06 00:24:41;;;;;;;6.10;4.10;;;10.90;99.90;;;;;;4927931;29;20213;-69
2022/05/06 00:27:06;;;;;;;6.70;5.60;;;10.80;99.90;;;;;;4929577;29;20874;-69
2022/05/06 00:29:33;;;;;;;7.53;5.23;;;10.80;99.90;;;;;;4927636;29;20420;-68
2022/05/06 00:31:59;;;;;;;4.53;4.10;;;10.70;99.90;;;;;;4930200;29;20179;-68
2022/05/06 00:34:24;;;;;;;6.87;4.77;;;10.70;99.90;;;;;;4927346;29;20562;-67
2022/05/06 00:36:50;;;;;;;6.10;5.20;;;10.70;99.90;;;;;;4928009;29;20234;-70
2022/05/06 00:39:15;;;;;;;9.80;6.27;;;10.80;99.90;;;;;;4925283;29;20278;-82
2022/05/06 00:41:41;;;;;;;9.27;5.57;;;10.90;99.90;;;;;;4925161;29;20300;-68
2022/05/06 00:44:08;;;;;;;7.53;4.70;;;10.90;99.90;;;;;;4929607;29;20204;-69
2022/05/06 00:46:35;;;;;;;6.67;4.83;;;10.90;99.90;;;;;;4927548;29;20209;-69
2022/05/06 00:49:01;;;;;;;9.23;6.83;;;10.80;99.90;;;;;;4928474;29;20315;-69
2022/05/06 00:51:27;;;;;;;7.30;4.43;;;10.70;99.90;;;;;;4927519;29;20719;-68
2022/05/06 00:53:56;;;;;;;7.17;4.73;;;10.70;99.90;;;;;;4929343;29;20257;-70
2022/05/06 00:56:24;;;;;;;5.23;4.73;;;10.70;99.90;;;;;;4927462;29;20208;-70
2022/05/06 00:58:51;;;;;;;5.60;4.97;;;10.60;99.90;;;;;;4928864;29;20221;-70
2022/05/06 01:01:17;;;;;;;8.70;4.80;;;10.60;99.90;;;;;;4928126;29;20209;-71
2022/05/06 01:03:42;;;;;;;5.53;5.00;;;10.60;99.90;;;;;;4929190;29;20563;-71
2022/05/06 01:06:15;;;;;;;9.17;6.00;;;10.60;99.90;;;;;;4927756;29;20577;-70
2022/05/06 01:08:42;;;;;;;6.07;4.80;;;10.60;99.90;;;;;;4915630;29;20201;-70
2022/05/06 01:11:10;;;;;;;5.87;5.17;;;10.60;99.90;;;;;;4927371;29;20215;-70
2022/05/06 01:13:46;;;;;;;5.47;4.30;;;10.50;99.90;;;;;;4928999;29;20213;-70
2022/05/06 01:16:12;;;;;;;6.27;5.00;;;10.50;99.90;;;;;;4926919;29;21015;-70
2022/05/06 01:18:38;;;;;;;8.13;4.73;;;10.50;99.90;;;;;;4929450;29;20215;-71
2022/05/06 01:21:06;;;;;;;7.67;5.50;;;10.40;99.90;;;;;;4927103;29;20247;-71
2022/05/06 01:23:31;;;;;;;6.03;5.47;;;10.30;99.90;;;;;;4928850;29;20198;-70
2022/05/06 01:25:57;;;;;;;5.67;4.93;;;10.20;99.90;;;;;;4926976;29;20238;-71
2022/05/06 01:28:23;;;;;;;6.80;5.23;;;10.30;99.90;;;;;;4929003;29;20201;-71
2022/05/06 01:30:52;;;;;;;8.37;5.17;;;10.30;99.90;;;;;;4927476;29;20209;-71
2022/05/06 01:33:21;;;;;;;6.17;5.60;;;10.30;99.90;;;;;;4928694;29;20207;-71
2022/05/06 01:35:51;;;;;;;10.93;5.80;;;10.30;99.90;;;;;;4926883;29;20231;-72
2022/05/06 01:38:21;;;;;;;10.90;5.70;;;10.30;99.90;;;;;;4928433;29;20224;-72
2022/05/06 01:40:52;;;;;;;10.53;5.40;;;10.30;99.90;;;;;;4918768;29;20322;-71
2022/05/06 01:43:20;;;;;;;6.33;5.37;;;10.30;99.90;;;;;;4909802;29;20880;-72
2022/05/06 01:45:48;;;;;;;5.67;5.13;;;10.20;99.90;;;;;;4926253;29;20694;-72
2022/05/06 01:48:19;;;;;;;10.17;5.17;;;10.10;99.90;;;;;;4928231;29;20199;-71
2022/05/06 01:50:47;;;;;;;6.53;5.27;;;10.10;99.90;;;;;;4915251;29;20612;-71
2022/05/06 01:53:16;;;;;;;7.17;5.13;;;10.10;99.90;;;;;;4928147;29;20315;-72
2022/05/06 01:55:45;;;;;;;7.83;5.70;;;10.10;99.90;;;;;;4918031;29;20208;-71
2022/05/06 01:58:11;;;;;;;6.20;5.60;;;10.10;99.90;;;;;;4928231;29;20288;-71
2022/05/06 02:00:36;;;;;;;6.87;5.83;;;10.00;99.90;;;;;;4924845;29;20210;-71
2022/05/06 02:03:05;;;;;;;8.70;5.80;;;10.00;99.90;;;;;;4928054;29;20196;-71
2022/05/06 02:05:31;;;;;;;6.03;5.43;;;10.00;99.90;;;;;;4926176;29;20301;-71
2022/05/06 02:07:57;;;;;;;6.27;5.67;;;9.90;99.90;;;;;;4927788;29;20195;-71
2022/05/06 02:10:25;;;;;;;6.00;5.20;;;9.90;99.90;;;;;;4926230;29;20243;-71
2022/05/06 02:12:50;;;;;;;10.43;5.77;;;9.80;99.90;;;;;;4928100;29;21042;-70
2022/05/06 02:15:18;;;;;;;7.30;6.13;;;9.70;99.90;;;;;;4925795;29;20295;-71
2022/05/06 02:17:44;;;;;;;9.03;5.33;;;9.70;99.90;;;;;;4927363;29;20200;-71
2022/05/06 02:20:11;;;;;;;7.30;5.20;;;9.60;99.90;;;;;;4925937;29;20198;-73
2022/05/06 02:22:38;;;;;;;9.57;5.97;;;9.50;99.90;;;;;;4928499;29;20188;-72
2022/05/06 02:25:09;;;;;;;7.73;6.93;;;9.50;99.90;;;;;;4920917;29;20199;-70
2022/05/06 02:27:36;;;;;;;9.77;5.90;;;9.50;99.90;;;;;;4927385;29;20208;-71
2022/05/06 02:35:30;;;;;;;7.70;5.90;;;9.50;99.90;;;;;;4925755;29;20690;-72
2022/05/06 02:37:56;;;;;;;10.10;6.03;;;9.50;99.90;;;;;;4924913;29;20233;-71
2022/05/06 02:40:21;;;;;;;9.87;5.63;;;9.40;99.90;;;;;;4909521;29;20221;-70
2022/05/06 02:42:47;;;;;;;8.97;5.67;;;9.40;99.90;;;;;;4925496;29;20207;-71
2022/05/06 02:45:13;;;;;;;6.80;5.73;;;9.40;99.90;;;;;;4927467;29;20601;-71
2022/05/06 02:47:38;;;;;;;8.10;5.43;;;9.30;99.90;;;;;;4925694;29;20199;-71
2022/05/06 02:50:04;;;;;;;8.73;6.70;;;9.30;99.90;;;;;;4927662;29;20710;-70
2022/05/06 02:52:30;;;;;;;9.70;6.13;;;9.40;99.90;;;;;;4925361;29;20205;-71
2022/05/06 02:54:55;;;;;;;6.57;6.03;;;9.40;99.90;;;;;;4927131;29;20409;-71
2022/05/06 02:57:21;;;;;;;7.00;6.30;;;9.30;99.90;;;;;;4925379;29;20204;-71
2022/05/06 02:59:46;;;;;;;8.70;5.87;;;9.40;99.90;;;;;;4926830;29;20307;-70
2022/05/06 03:02:12;;;;;;;10.27;6.23;;;9.40;99.90;;;;;;4925416;29;21026;-70
2022/05/06 03:04:38;;;;;;;8.00;6.23;;;9.40;99.90;;;;;;4927279;29;20696;-70
2022/05/06 03:07:06;;;;;;;8.23;6.00;;;9.40;99.90;;;;;;4925019;29;20277;-72
2022/05/06 03:09:33;;;;;;;8.93;7.00;;;9.30;99.90;;;;;;4927302;29;20207;-72
2022/05/06 03:11:59;;;;;;;9.90;7.57;;;9.30;99.90;;;;;;4924811;29;20203;-72
2022/05/06 03:14:25;;;;;;;8.97;7.10;;;9.20;99.90;;;;;;4927628;29;20677;-72
2022/05/06 03:16:50;;;;;;;10.60;7.73;;;9.10;99.90;;;;;;4914618;29;20331;-71
2022/05/06 03:19:16;;;;;;;9.87;6.77;;;9.10;99.90;;;;;;4927161;29;20265;-71
2022/05/06 03:21:44;;;;;;;8.40;6.80;;;9.20;99.90;;;;;;4926547;29;20201;-70
2022/05/06 03:24:09;;;;;;;11.50;8.03;;;9.30;99.90;;;;;;4914968;29;20296;-71
2022/05/06 03:26:35;;;;;;;11.33;8.23;;;9.30;99.90;;;;;;4926955;29;20280;-70
2022/05/06 03:29:00;;;;;;;7.13;6.43;;;9.30;99.90;;;;;;4925162;29;20628;-71
2022/05/06 03:31:26;;;;;;;7.33;6.43;;;9.30;99.90;;;;;;4924899;29;20204;-70
2022/05/06 03:33:54;;;;;;;7.37;6.67;;;9.20;99.90;;;;;;4925406;29;20403;-71
2022/05/06 03:36:20;;;;;;;7.90;6.57;;;9.20;99.90;;;;;;4926488;29;20341;-69
2022/05/06 03:38:46;;;;;;;7.70;6.53;;;9.20;99.90;;;;;;4924134;29;20218;-71
2022/05/06 03:41:11;;;;;;;10.17;7.73;;;9.20;99.90;;;;;;4927089;29;20237;-71
2022/05/06 03:43:37;;;;;;;8.63;6.77;;;9.20;99.90;;;;;;4924999;29;20205;-70
2022/05/06 03:46:02;;;;;;;8.47;7.17;;;9.20;99.90;;;;;;4926764;29;20231;-70
2022/05/06 03:48:28;;;;;;;9.00;7.23;;;9.20;99.90;;;;;;4925122;29;20298;-70
2022/05/06 03:53:38;;;;;;;12.10;8.20;;;9.20;99.90;;;;;;4920848;29;20245;-73
2022/05/06 03:56:04;;;;;;;22.20;11.80;;;9.20;99.90;;;;;;4926910;29;20662;-71
2022/05/06 03:58:30;;;;;;;8.07;6.70;;;9.20;99.90;;;;;;4924834;29;20221;-72
2022/05/06 04:00:56;;;;;;;9.27;7.90;;;9.20;99.90;;;;;;4924493;29;20762;-73
2022/05/06 04:03:22;;;;;;;16.43;7.57;;;9.20;99.90;;;;;;4924667;29;20199;-73
2022/05/06 04:05:47;;;;;;;18.07;8.73;;;9.20;99.90;;;;;;4926416;29;20220;-73
2022/05/06 04:08:13;;;;;;;10.13;9.07;;;9.20;99.90;;;;;;4924909;29;20241;-71
2022/05/06 04:10:38;;;;;;;14.70;10.77;;;9.00;99.90;;;;;;4926283;29;20253;-74
2022/05/06 04:13:04;;;;;;;12.07;8.23;;;9.10;99.90;;;;;;4924727;29;20680;-75
2022/05/06 04:15:32;;;;;;;12.87;8.47;;;9.20;99.90;;;;;;4924901;29;20378;-74
2022/05/06 04:17:58;;;;;;;10.33;8.40;;;9.20;99.90;;;;;;4918685;29;20224;-71
2022/05/06 04:25:52;;;;;;;9.23;8.17;;;9.30;99.90;;;;;;4929659;29;20729;-71
2022/05/06 04:28:18;;;;;;;10.10;7.30;;;9.40;99.90;;;;;;4928123;29;20236;-71
2022/05/06 04:30:43;;;;;;;10.10;8.67;;;9.40;99.90;;;;;;4929477;29;20220;-71
2022/05/06 04:33:09;;;;;;;9.17;7.27;;;9.40;99.90;;;;;;4927753;29;20207;-70
2022/05/06 04:35:34;;;;;;;10.93;7.83;;;9.40;99.90;;;;;;4921539;29;20237;-71
2022/05/06 04:38:00;;;;;;;9.53;7.23;;;9.40;99.90;;;;;;4927531;29;20696;-71
2022/05/06 04:40:26;;;;;;;8.77;7.73;;;9.50;99.90;;;;;;4929665;29;20195;-70
2022/05/06 04:42:51;;;;;;;11.03;7.67;;;9.50;99.90;;;;;;4927748;29;20521;-71
2022/05/06 04:45:17;;;;;;;7.87;7.07;;;9.50;99.90;;;;;;4929290;29;20200;-71
2022/05/06 04:47:42;;;;;;;8.47;6.93;;;9.50;99.90;;;;;;4917214;29;20678;-71
2022/05/06 04:50:08;;;;;;;10.37;7.37;;;9.50;99.90;;;;;;4929685;29;20560;-71
2022/05/06 04:52:33;;;;;;;8.10;7.30;;;9.60;99.90;;;;;;4927910;29;20206;-70
2022/05/06 04:54:59;;;;;;;9.50;6.67;;;9.70;99.90;;;;;;4929807;29;20411;-71
2022/05/06 04:57:24;;;;;;;8.17;6.30;;;9.70;99.90;;;;;;4914844;29;20201;-71
2022/05/06 04:59:50;;;;;;;7.23;6.63;;;9.80;99.90;;;;;;4929610;29;20320;-72
2022/05/06 05:02:16;;;;;;;8.57;6.33;;;9.80;99.90;;;;;;4927477;29;20201;-71
2022/05/06 05:04:43;;;;;;;7.27;5.83;;;9.80;99.90;;;;;;4929724;29;20261;-71
2022/05/06 05:07:08;;;;;;;6.10;5.57;;;9.90;99.90;;;;;;4927920;29;20240;-72
2022/05/06 05:09:34;;;;;;;6.33;5.77;;;10.00;99.90;;;;;;4929288;29;20232;-71
2022/05/06 05:11:59;;;;;;;8.37;7.60;;;10.20;99.90;;;;;;4926594;29;20294;-71
2022/05/06 05:14:25;;;;;;;6.67;5.90;;;10.20;99.90;;;;;;4929128;29;20184;-71
2022/05/06 05:16:50;;;;;;;10.23;6.33;;;10.30;99.90;;;;;;4927096;29;21045;-72
2022/05/06 05:19:17;;;;;;;5.60;4.97;;;10.30;99.90;;;;;;4928932;29;20213;-72
2022/05/06 05:21:42;;;;;;;9.57;6.00;;;10.30;99.90;;;;;;4927326;29;20282;-71
2022/05/06 05:24:08;;;;;;;10.60;7.33;;;10.30;99.90;;;;;;4928994;29;20277;-71
2022/05/06 05:26:34;;;;;;;6.30;5.80;;;10.40;99.90;;;;;;4928597;29;20214;-72
2022/05/06 05:29:00;;;;;;;10.90;6.20;;;10.40;99.90;;;;;;4926799;29;20876;-72
2022/05/06 05:31:25;;;;;;;7.87;6.47;;;10.40;99.90;;;;;;4928818;29;20206;-67
2022/05/06 05:33:52;;;;;;;8.30;5.97;;;10.60;99.90;;;;;;4924826;29;20365;-71
2022/05/06 05:36:18;;;;;;;8.23;6.47;;;10.60;99.90;;;;;;4927982;29;20307;-71
2022/05/06 05:38:44;;;;;;;8.77;5.13;;;10.70;99.90;;;;;;4926555;29;20257;-71
2022/05/06 05:41:09;;;;;;;10.70;7.13;;;10.70;99.90;;;;;;4927925;29;20229;-70
2022/05/06 05:49:03;;;;;;;14.03;8.03;;;11.20;99.90;;;;;;4926483;29;20217;-70
2022/05/06 05:51:29;;;;;;;11.93;7.10;;;11.10;99.90;;;;;;4928238;29;20645;-70
2022/05/06 05:53:54;;;;;;;8.90;6.53;;;11.30;99.90;;;;;;4925928;29;20217;-70
2022/05/06 05:56:20;;;;;;;12.50;7.47;;;11.50;99.90;;;;;;4927903;29;20510;-72
2022/05/06 05:58:45;;;;;;;6.30;5.50;;;11.50;99.90;;;;;;4923795;29;20721;-72
2022/05/06 06:01:11;;;;;;;6.67;6.07;;;11.70;99.90;;;;;;4927764;29;20206;-70
2022/05/06 06:03:37;;;;;;;10.03;5.80;;;11.80;99.90;;;;;;4926432;29;20743;-70
2022/05/06 06:06:03;;;;;;;6.43;5.20;;;12.00;99.90;;;;;;4918986;29;20201;-70
2022/05/06 06:08:29;;;;;;;9.37;5.60;;;12.10;99.90;;;;;;4925854;29;20211;-71
2022/05/06 06:10:54;;;;;;;11.97;4.80;;;12.20;99.90;;;;;;4927541;29;20573;-70
2022/05/06 06:13:19;;;;;;;10.77;5.73;;;12.20;99.90;;;;;;4926234;29;20251;-71
2022/05/06 06:15:45;;;;;;;6.37;5.63;;;12.30;99.90;;;;;;4927644;29;20213;-70
2022/05/06 06:18:11;;;;;;;7.67;5.20;;;12.40;99.90;;;;;;4925667;29;20365;-70
2022/05/06 06:20:37;;;;;;;8.40;6.77;;;12.40;99.90;;;;;;4927587;29;20229;-70
2022/05/06 06:23:03;;;;;;;5.93;5.00;;;12.60;99.90;;;;;;4926157;29;20210;-71
2022/05/06 06:25:29;;;;;;;5.23;4.70;;;12.60;99.90;;;;;;4927298;29;20247;-70
2022/05/06 06:27:54;;;;;;;5.53;5.03;;;12.70;99.90;;;;;;4925506;29;20265;-71
2022/05/06 06:30:20;;;;;;;8.53;4.60;;;12.80;99.90;;;;;;4927794;29;20214;-72
2022/05/06 06:32:45;;;;;;;5.17;4.50;;;12.80;99.90;;;;;;4925628;29;20210;-70
2022/05/06 06:35:11;;;;;;;5.27;4.63;;;12.90;99.90;;;;;;4920196;29;20644;-72
2022/05/06 06:37:38;;;;;;;9.10;4.77;;;12.90;99.90;;;;;;4924923;29;20191;-71
2022/05/06 06:40:05;;;;;;;6.57;3.90;;;13.00;99.90;;;;;;4927374;29;20249;-71
2022/05/06 06:42:30;;;;;;;204.20;186.00;;;13.10;99.90;;;;;;4925445;29;20213;-71
2022/05/06 06:44:58;;;;;;;253.43;229.23;;;13.10;99.90;;;;;;4927721;29;20269;-72
2022/05/06 06:47:23;;;;;;;41.00;37.57;;;13.40;99.90;;;;;;4924787;29;20692;-70
2022/05/06 06:49:49;;;;;;;9.07;5.77;;;13.40;99.90;;;;;;4927123;29;20195;-70
2022/05/06 06:52:15;;;;;;;12.40;5.93;;;13.40;99.90;;;;;;4925195;29;20261;-72
2022/05/06 06:54:40;;;;;;;10.87;5.83;;;13.60;99.80;;;;;;4927349;29;20603;-69
2022/05/06 06:57:06;;;;;;;12.83;6.57;;;13.60;99.70;;;;;;4925132;29;20202;-70
2022/05/06 06:59:31;;;;;;;10.67;6.10;;;13.60;99.90;;;;;;4927251;29;20215;-69
2022/05/06 07:01:57;;;;;;;29.23;14.10;;;13.60;99.70;;;;;;4911833;29;20195;-70
2022/05/06 07:04:23;;;;;;;16.20;6.87;;;13.80;99.90;;;;;;4927667;29;20227;-71
2022/05/06 07:12:17;;;;;;;17.27;7.47;;;13.90;99.90;;;;;;4925497;29;20297;-72
2022/05/06 07:14:43;;;;;;;22.00;10.27;;;14.10;99.90;;;;;;4927390;29;20191;-70
2022/05/06 07:17:10;;;;;;;13.90;7.63;;;14.20;99.90;;;;;;4924406;29;20207;-71
2022/05/06 07:19:36;;;;;;;14.57;7.50;;;14.20;99.90;;;;;;4926457;29;20226;-70
2022/05/06 07:22:01;;;;;;;26.73;12.60;;;14.20;99.90;;;;;;4924789;29;20676;-70
2022/05/06 07:24:27;;;;;;;12.00;6.43;;;14.30;99.90;;;;;;4926764;29;20562;-70
2022/05/06 07:26:53;;;;;;;46.20;19.90;;;14.50;99.90;;;;;;4924944;29;20689;-71
2022/05/06 07:29:19;;;;;;;19.53;9.23;;;14.50;99.90;;;;;;4927113;29;20203;-71
2022/05/06 07:31:45;;;;;;;27.17;13.40;;;14.70;99.90;;;;;;4924950;29;20567;-70
2022/05/06 07:34:12;;;;;;;16.87;9.30;;;14.80;99.90;;;;;;4926951;29;20231;-72
2022/05/06 07:36:41;;;;;;;19.63;11.13;;;14.60;99.90;;;;;;4926936;29;20314;-74
2022/05/06 07:39:12;;;;;;;13.67;8.30;;;14.50;99.90;;;;;;4925188;29;20286;-72
2022/05/06 07:41:38;;;;;;;17.83;9.80;;;14.50;99.90;;;;;;4922206;29;20195;-73
2022/05/06 07:44:04;;;;;;;15.00;9.00;;;14.60;99.90;;;;;;4925100;29;20577;-71
2022/05/06 07:46:30;;;;;;;20.40;10.13;;;15.00;99.90;;;;;;4918200;29;20202;-70
2022/05/06 07:48:55;;;;;;;18.90;9.30;;;15.20;99.90;;;;;;4924927;29;20270;-72
2022/05/06 07:51:20;;;;;;;13.90;8.03;;;15.30;99.90;;;;;;4926935;29;20250;-71
2022/05/06 07:53:48;;;;;;;11.37;7.73;;;15.20;99.80;;;;;;4924815;29;20210;-70
2022/05/06 07:56:13;;;;;;;15.33;8.77;;;15.10;99.90;;;;;;4926499;29;20254;-67
2022/05/06 07:58:39;;;;;;;12.67;8.23;;;15.30;99.80;;;;;;4927308;29;20230;-70
2022/05/06 08:01:06;;;;;;;10.20;8.77;;;15.30;99.90;;;;;;4930045;29;20195;-71
2022/05/06 08:06:16;;;;;;;9.53;8.03;;;15.30;99.50;;;;;;4930013;29;20194;-68
2022/05/06 08:08:41;;;;;;;10.10;7.47;;;15.20;99.70;;;;;;4926394;29;20384;-70
2022/05/06 08:11:07;;;;;;;13.43;8.97;;;15.30;99.30;;;;;;4929103;29;20199;-70
2022/05/06 08:13:33;;;;;;;13.37;8.30;;;15.30;99.80;;;;;;4928110;29;20199;-69
2022/05/06 08:15:59;;;;;;;14.07;8.63;;;15.50;99.40;;;;;;4929125;29;20249;-70
2022/05/06 08:18:24;;;;;;;11.93;8.67;;;15.70;99.80;;;;;;4927370;29;20222;-71
2022/05/06 08:20:51;;;;;;;13.60;7.77;;;15.90;99.00;;;;;;4929573;29;20701;-72
2022/05/06 08:23:18;;;;;;;11.70;6.63;;;15.80;98.80;;;;;;4927703;29;20234;-70
2022/05/06 08:25:43;;;;;;;10.37;7.23;;;15.90;98.80;;;;;;4928777;29;20401;-67
2022/05/06 08:28:09;;;;;;;8.43;6.30;;;16.00;98.90;;;;;;4927848;29;20265;-70
2022/05/06 08:30:35;;;;;;;9.63;7.47;;;16.10;98.70;;;;;;4929515;29;20760;-67
2022/05/06 08:33:01;;;;;;;11.97;8.47;;;16.10;98.60;;;;;;4926658;29;20212;-69
2022/05/06 08:35:27;;;;;;;8.77;7.53;;;15.50;98.70;;;;;;4928501;29;20238;-68
2022/05/06 08:37:53;;;;;;;8.60;7.00;;;15.50;99.10;;;;;;4927076;29;20207;-69
2022/05/06 08:40:21;;;;;;;8.73;7.70;;;15.50;99.10;;;;;;4929248;29;20191;-71
2022/05/06 08:42:47;;;;;;;10.83;8.20;;;15.70;98.60;;;;;;4927041;29;20199;-69
2022/05/06 08:50:52;;;;;;;8.73;6.73;;;16.50;98.10;;;;;;4929246;29;20194;-71
2022/05/06 08:53:22;;;;;;;10.43;7.37;;;16.90;97.80;;;;;;4926940;29;20881;-73
2022/05/06 08:55:53;;;;;;;6.63;5.87;;;16.40;97.40;;;;;;4929133;29;20230;-70
2022/05/06 08:58:19;;;;;;;10.43;6.80;;;16.80;97.40;;;;;;4920700;29;20223;-70
2022/05/06 09:00:44;;;;;;;6.90;5.83;;;16.90;97.10;;;;;;4927854;29;20243;-70
2022/05/06 09:03:12;;;;;;;8.53;5.50;;;17.10;97.00;;;;;;4927725;29;20212;-71
2022/05/06 09:05:52;;;;;;;13.80;7.57;;;17.30;96.70;;;;;;4929626;29;20679;-72
2022/05/06 09:08:18;;;;;;;9.87;7.20;;;17.20;96.70;;;;;;4926623;29;20226;-71
2022/05/06 09:10:58;;;;;;;11.67;6.93;;;17.40;96.50;;;;;;4927880;29;20990;-69
2022/05/06 09:13:25;;;;;;;7.70;5.70;;;17.60;96.30;;;;;;4923931;29;20207;-69
2022/05/06 09:18:36;;;;;;;7.33;6.13;;;17.30;95.40;;;;;;4926525;29;20234;-69
2022/05/06 09:21:11;;;;;;;5.50;4.83;;;17.10;95.50;;;;;;4928744;29;20226;-69
2022/05/06 09:23:36;;;;;;;6.80;4.93;;;17.30;95.60;;;;;;4927224;29;21011;-69
2022/05/06 09:26:02;;;;;;;8.50;6.23;;;17.00;95.00;;;;;;4928619;29;20216;-66
2022/05/06 09:28:29;;;;;;;8.40;7.40;;;17.00;95.30;;;;;;4926318;29;20328;-66
2022/05/06 09:31:01;;;;;;;6.07;5.47;;;17.00;95.60;;;;;;4928361;29;20196;-68
2022/05/06 09:33:28;;;;;;;6.43;5.03;;;17.30;96.00;;;;;;4926299;29;20207;-67
2022/05/06 09:35:56;;;;;;;5.97;5.07;;;17.60;95.50;;;;;;4928221;29;20265;-68
2022/05/06 09:38:21;;;;;;;6.07;5.53;;;17.50;94.90;;;;;;4926194;29;20235;-68
2022/05/06 09:40:47;;;;;;;5.77;4.60;;;17.60;95.20;;;;;;4928727;29;20579;-68
2022/05/06 09:43:19;;;;;;;7.33;4.73;;;17.70;94.50;;;;;;4927050;29;20294;-67
2022/05/06 09:45:46;;;;;;;10.43;4.53;;;17.50;94.00;;;;;;4928078;29;20193;-66
2022/05/06 09:48:13;;;;;;;8.03;4.27;;;17.30;94.00;;;;;;4926014;29;20310;-69
2022/05/06 09:50:41;;;;;;;4.83;3.00;;;17.20;94.20;;;;;;4926665;29;20195;-68
2022/05/06 09:53:18;;;;;;;6.20;3.57;;;17.30;92.70;;;;;;4925825;29;20297;-68
2022/05/06 09:55:46;;;;;;;3.53;3.17;;;17.60;92.90;;;;;;4918927;29;20199;-80
2022/05/06 09:58:13;;;;;;;6.37;4.50;;;18.00;92.80;;;;;;4943929;28;20775;-75
2022/05/06 10:00:38;;;;;;;9.63;4.77;;;18.10;99.90;;;;;;4930184;29;20237;-78
2022/05/06 10:03:05;;;;;;;6.60;4.77;;;18.10;94.10;;;;;;4926588;29;20232;-75
2022/05/06 10:05:34;;;;;;;77.73;70.63;;;18.40;94.40;;;;;;4927759;29;20287;-73
2022/05/06 10:08:15;;;;;;;6.60;5.90;;;18.20;93.60;;;;;;4926167;29;20746;-72
2022/05/06 10:10:46;;;;;;;5.43;4.23;;;18.20;93.40;;;;;;4927058;29;21235;-70
2022/05/06 10:13:22;;;;;;;7.43;6.33;;;18.40;93.50;;;;;;4924623;29;20221;-72
2022/05/06 10:15:49;;;;;;;6.37;4.50;;;18.50;93.10;;;;;;4928098;29;20185;-73
2022/05/06 10:18:34;;;;;;;6.80;4.40;;;18.10;93.40;;;;;;4922684;29;20584;-72
2022/05/06 10:21:04;;;;;;;7.83;5.30;;;17.90;93.10;;;;;;4919069;29;20299;-71
2022/05/06 10:23:46;;;;;;;3.40;3.10;;;18.00;92.90;;;;;;4927518;29;20260;-71
2022/05/06 10:26:53;;;;;;;6.37;3.93;;;18.30;91.90;;;;;;4925647;29;20857;-71
2022/05/06 10:32:26;;;;;;;5.07;3.60;;;18.60;91.50;;;;;;4868106;29;21031;-71
2022/05/06 10:34:58;;;;;;;4.17;3.77;;;18.30;91.20;;;;;;4899926;29;20233;-72
2022/05/06 10:37:26;;;;;;;6.80;4.07;;;18.30;91.30;;;;;;4927742;29;20192;-71
2022/05/06 10:39:52;;;;;;;4.33;3.37;;;18.40;91.20;;;;;;4923683;29;20259;-72
2022/05/06 10:42:30;;;;;;;5.50;4.37;;;18.90;88.90;;;;;;4927087;29;20229;-69
2022/05/06 10:44:56;;;;;;;5.43;3.87;;;19.00;90.10;;;;;;4924098;29;20662;-71
2022/05/06 10:47:22;;;;;;;6.40;5.07;;;18.90;90.20;;;;;;4927110;29;20204;-72
2022/05/06 10:49:52;;;;;;;6.70;4.07;;;19.10;90.80;;;;;;4926297;29;20223;-72
2022/05/06 10:52:22;;;;;;;6.20;4.20;;;19.20;89.40;;;;;;4927238;29;20718;-71
2022/05/06 10:54:58;;;;;;;10.57;5.93;;;19.30;88.40;;;;;;4921979;29;20209;-72
2022/05/06 10:57:25;;;;;;;651.93;609.97;;;19.30;89.50;;;;;;4924007;29;20578;-72
2022/05/06 10:59:52;;;;;;;687.17;643.77;;;19.70;88.90;;;;;;4922364;29;20221;-70
2022/05/06 11:02:21;;;;;;;9.30;5.83;;;20.20;87.40;;;;;;4916648;29;20195;-72
2022/05/06 11:04:51;;;;;;;7.93;5.33;;;20.30;86.60;;;;;;4925105;29;20209;-71
2022/05/06 11:07:19;;;;;;;19.27;8.50;;;20.30;85.00;;;;;;4926708;29;20295;-70
2022/05/06 11:09:45;;;;;;;12.13;10.30;;;20.40;85.10;;;;;;4921813;29;20210;-71
2022/05/06 11:12:27;;;;;;;3.42;2.92;;;21.20;81.20;;;;;;4911625;29;20828;-70
2022/05/06 11:14:58;;;;;;;3.85;2.17;;;21.80;78.60;;;;;;4922431;29;20537;-70
2022/05/06 11:17:27;;;;;;;3.07;2.77;;;22.30;75.20;;;;;;4926205;29;20398;-70
2022/05/06 11:19:53;;;;;;;3.42;3.05;;;20.80;78.40;;;;;;4925273;29;20218;-72
2022/05/06 11:22:20;;;;;;;2.88;2.25;;;21.60;78.60;;;;;;4926707;29;20215;-72
2022/05/06 11:24:46;;;;;;;2.92;2.50;;;22.10;74.80;;;;;;4921524;29;20919;-71
2022/05/06 11:27:18;;;;;;;3.28;2.28;;;23.10;76.00;;;;;;4926952;29;20254;-71
2022/05/06 11:29:58;;;;;;;3.75;2.60;;;23.00;71.70;;;;;;4922686;29;20210;-71
2022/05/06 11:32:25;;;;;;;2.75;2.50;;;22.20;72.50;;;;;;4927420;29;20203;-71
2022/05/06 11:35:14;;;;;;;2.58;2.28;;;21.50;73.20;;;;;;4926268;29;20767;-70
2022/05/06 11:37:41;;;;;;;3.27;2.83;;;21.10;75.70;;;;;;4929145;29;20202;-72
2022/05/06 11:40:32;;;;;;;5.87;3.30;;;20.90;75.60;;;;;;4928917;29;20587;-71
2022/05/06 11:43:04;;;;;;;4.27;3.87;;;20.50;75.20;;;;;;4922876;29;20567;-70
2022/05/06 11:48:24;;;;;;;5.53;3.10;;;20.30;74.60;;;;;;4928759;29;20208;-71
2022/05/06 11:50:55;;;;;;;3.40;3.10;;;20.80;74.80;;;;;;4920013;29;20190;-74
2022/05/06 11:53:25;;;;;;;2.45;2.25;;;21.70;72.10;;;;;;4922391;29;20210;-70
2022/05/06 11:55:52;;;;;;;3.33;2.55;;;22.20;70.20;;;;;;4930437;29;20201;-69
2022/05/06 11:58:17;;;;;;;6.90;3.40;;;22.50;69.80;;;;;;4928491;29;20219;-70
2022/05/06 12:00:45;;;;;;;6.47;4.65;;;22.50;70.00;;;;;;4930357;29;20194;-70
2022/05/06 12:03:12;;;;;;;3.47;2.67;;;22.30;69.40;;;;;;4928236;29;23637;-70
2022/05/06 12:05:39;;;;;;;4.17;3.40;;;21.60;69.60;;;;;;4930142;29;20179;-70
2022/05/06 12:08:07;;;;;;;19.57;10.27;;;21.90;70.10;;;;;;4927789;29;20219;-71
2022/05/06 12:10:37;;;;;;;9.93;5.27;;;21.80;70.20;;;;;;4930478;29;20185;-71
2022/05/06 12:13:07;;;;;;;22.15;12.15;;;21.60;70.60;;;;;;4928115;29;20194;-71
2022/05/06 12:15:40;;;;;;;10.23;4.63;;;21.50;71.60;;;;;;4930196;29;20753;-77
2022/05/06 12:18:18;;;;;;;610.13;558.87;;;21.20;70.00;;;;;;4927320;29;20261;-66
2022/05/06 12:20:46;;;;;;;12.13;6.33;;;20.80;71.50;;;;;;4929771;29;20296;-67
2022/05/06 12:23:13;;;;;;;9.07;5.37;;;20.20;73.00;;;;;;4927450;29;20204;-67
2022/05/06 12:25:40;;;;;;;9.27;4.90;;;20.20;75.30;;;;;;4929617;29;20926;-67
2022/05/06 12:28:21;;;;;;;34.43;15.17;;;20.40;75.20;;;;;;4927485;29;20224;-66
2022/05/06 12:30:58;;;;;;;10.77;5.90;;;20.30;73.90;;;;;;4927975;29;20735;-68
2022/05/06 12:33:41;;;;;;;9.33;4.67;;;20.30;74.10;;;;;;4927612;29;20212;-68
2022/05/06 12:36:08;;;;;;;14.40;8.50;;;20.20;73.40;;;;;;4909906;29;20237;-69
2022/05/06 12:38:40;;;;;;;21.13;9.53;;;20.20;72.00;;;;;;4924989;29;20353;-68
2022/05/06 12:41:22;;;;;;;10.27;5.00;;;20.10;73.10;;;;;;4929608;29;20191;-67
2022/05/06 12:43:49;;;;;;;20.23;17.80;;;20.20;72.70;;;;;;4927480;29;20198;-67
2022/05/06 12:46:27;;;;;;;146.83;139.10;;;20.50;72.60;;;;;;4929356;29;20669;-68
2022/05/06 12:51:42;;;;;;;35.90;32.67;;;20.80;70.40;;;;;;4925684;29;20249;-70
2022/05/06 12:54:12;;;;;;;14.33;6.57;;;21.40;69.40;;;;;;4928381;29;20310;-68
2022/05/06 12:56:40;;;;;;;37.13;33.63;;;21.90;68.80;;;;;;4929642;29;20258;-68
2022/05/06 12:59:07;;;;;;;12.20;6.47;;;22.00;67.90;;;;;;4926808;29;20223;-68
2022/05/06 13:01:35;;;;;;;19.33;9.25;;;22.40;67.80;;;;;;4928326;29;20225;-68
2022/05/06 13:04:01;;;;;;;21.97;12.53;;;22.20;68.30;;;;;;4926180;29;20357;-68
2022/05/06 13:06:29;;;;;;;7.22;4.50;;;22.30;68.90;;;;;;4929510;29;20293;-68
2022/05/06 13:08:54;;;;;;;16.50;7.40;;;22.40;68.00;;;;;;4927562;29;20215;-68
2022/05/06 13:11:20;;;;;;;13.95;6.07;;;22.30;68.10;;;;;;4929492;29;20302;-68
2022/05/06 13:13:45;;;;;;;9.05;4.70;;;21.70;67.80;;;;;;4927814;29;20666;-68
2022/05/06 13:16:12;;;;;;;5.55;3.50;;;21.90;68.50;;;;;;4929086;29;20199;-68
2022/05/06 13:18:38;;;;;;;9.35;5.07;;;22.80;66.90;;;;;;4928144;29;20704;-68
2022/05/06 13:21:04;;;;;;;13.13;6.28;;;22.90;65.70;;;;;;4928894;29;20262;-68
2022/05/06 13:23:29;;;;;;;9.00;4.28;;;22.70;62.80;;;;;;4927703;29;20685;-66
2022/05/06 13:25:55;;;;;;;8.15;5.13;;;20.90;66.10;;;;;;4929353;29;20371;-67
2022/05/06 13:28:21;;;;;;;11.80;5.67;;;20.60;66.80;;;;;;4921105;29;20459;-68
2022/05/06 13:30:46;;;;;;;14.90;8.20;;;21.00;66.30;;;;;;4929143;29;20630;-67